createdAt,value
2023-05-16T00:01:37.907Z,29.40
2023-05-16T00:04:06.735Z,30.20
2023-05-16T00:06:36.590Z,30.00
2023-05-16T00:09:04.869Z,30.80
2023-05-16T00:15:36.006Z,31.70
2023-05-16T00:18:04.088Z,31.73
2023-05-16T00:20:32.192Z,31.97
2023-05-16T00:23:01.958Z,31.93
2023-05-16T00:25:29.997Z,32.50
2023-05-16T00:27:58.458Z,32.50
2023-05-16T00:30:26.560Z,32.70
2023-05-16T00:32:55.851Z,32.80
2023-05-16T00:35:24.961Z,32.77
2023-05-16T00:37:53.005Z,33.37
2023-05-16T00:40:24.540Z,32.60
2023-05-16T00:42:52.750Z,33.13
2023-05-16T00:45:20.940Z,33.20
2023-05-16T00:47:49.333Z,32.10
2023-05-16T00:50:18.123Z,33.67
2023-05-16T00:52:46.598Z,32.87
2023-05-16T00:55:15.798Z,33.77
2023-05-16T00:57:45.352Z,33.63
2023-05-16T01:00:16.002Z,32.50
2023-05-16T01:02:44.903Z,33.17
2023-05-16T01:05:13.215Z,32.90
2023-05-16T01:07:41.285Z,32.53
2023-05-16T01:10:10.641Z,32.30
2023-05-16T01:12:43.058Z,32.23
2023-05-16T01:15:15.185Z,33.50
2023-05-16T01:17:54.540Z,32.10
2023-05-16T01:20:34.820Z,32.47
2023-05-16T01:23:22.020Z,32.50
2023-05-16T01:25:59.286Z,33.20
2023-05-16T01:28:29.992Z,32.40
2023-05-16T01:30:58.107Z,32.30
2023-05-16T01:33:26.111Z,32.27
2023-05-16T01:36:00.859Z,32.70
2023-05-16T01:38:38.813Z,31.90
2023-05-16T01:41:14.257Z,31.60
2023-05-16T01:43:46.501Z,32.13
2023-05-16T01:46:17.715Z,31.30
2023-05-16T01:48:52.664Z,31.27
2023-05-16T01:51:24.164Z,30.70
2023-05-16T01:53:54.358Z,31.93
2023-05-16T01:56:23.007Z,32.20
2023-05-16T01:58:54.485Z,31.67
2023-05-16T02:01:22.577Z,31.77
2023-05-16T02:03:51.258Z,32.10
2023-05-16T02:06:19.312Z,31.97
2023-05-16T02:08:47.326Z,32.03
2023-05-16T02:11:18.874Z,30.23
2023-05-16T02:13:47.132Z,31.13
2023-05-16T02:16:16.700Z,31.07
2023-05-16T02:18:46.067Z,29.70
2023-05-16T02:21:14.199Z,29.50
2023-05-16T02:23:42.185Z,30.03
2023-05-16T02:26:10.233Z,29.47
2023-05-16T02:28:38.300Z,29.53
2023-05-16T02:31:06.538Z,30.30
2023-05-16T02:33:36.010Z,29.93
2023-05-16T02:36:04.394Z,30.50
2023-05-16T02:38:32.373Z,30.00
2023-05-16T02:41:00.424Z,29.90
2023-05-16T02:43:28.373Z,30.73
2023-05-16T02:45:56.516Z,31.90
2023-05-16T02:48:24.479Z,31.73
2023-05-16T02:50:53.872Z,32.87
2023-05-16T02:53:21.888Z,31.47
2023-05-16T02:55:49.882Z,32.43
2023-05-16T02:58:17.859Z,31.73
2023-05-16T03:00:46.009Z,33.23
2023-05-16T03:03:14.084Z,34.13
2023-05-16T03:05:42.417Z,33.33
2023-05-16T03:08:11.887Z,32.83
2023-05-16T03:10:39.859Z,33.03
2023-05-16T03:13:08.156Z,33.00
2023-05-16T03:15:36.160Z,32.07
2023-05-16T03:18:04.465Z,31.67
2023-05-16T03:20:32.558Z,31.80
2023-05-16T03:23:00.547Z,30.80
2023-05-16T03:25:29.982Z,30.10
2023-05-16T03:27:57.971Z,30.67
2023-05-16T03:30:26.362Z,29.70
2023-05-16T03:32:54.634Z,28.90
2023-05-16T03:35:22.842Z,28.67
2023-05-16T03:37:50.907Z,29.10
2023-05-16T03:40:19.987Z,28.40
2023-05-16T03:42:49.367Z,27.80
2023-05-16T03:45:17.560Z,27.17
2023-05-16T03:47:45.669Z,27.63
2023-05-16T03:50:13.697Z,26.87
2023-05-16T03:52:41.709Z,25.53
2023-05-16T03:55:09.936Z,25.60
2023-05-16T03:57:39.288Z,24.93
2023-05-16T04:00:11.162Z,24.30
2023-05-16T04:02:43.030Z,23.77
2023-05-16T04:05:12.543Z,23.00
2023-05-16T04:07:40.799Z,23.33
2023-05-16T04:10:10.394Z,22.37
2023-05-16T04:12:38.733Z,21.20
2023-05-16T04:15:09.293Z,21.77
2023-05-16T04:17:37.567Z,21.77
2023-05-16T04:20:07.113Z,21.00
2023-05-16T04:22:35.119Z,21.47
2023-05-16T04:25:03.380Z,22.63
2023-05-16T04:27:31.841Z,21.77
2023-05-16T04:30:00.473Z,22.13
2023-05-16T04:32:30.267Z,21.57
2023-05-16T04:34:58.335Z,21.23
2023-05-16T04:37:26.791Z,20.97
2023-05-16T04:39:55.417Z,18.67
2023-05-16T04:42:24.272Z,17.97
2023-05-16T04:45:05.006Z,16.93
2023-05-16T04:47:39.267Z,16.20
2023-05-16T04:50:09.802Z,15.60
2023-05-16T04:52:38.284Z,14.63
2023-05-16T04:55:07.231Z,15.63
2023-05-16T04:57:35.295Z,15.10
2023-05-16T05:00:07.101Z,14.60
2023-05-16T05:02:35.317Z,15.67
2023-05-16T05:05:12.606Z,14.40
2023-05-16T05:07:42.965Z,16.00
2023-05-16T05:10:12.278Z,15.53
2023-05-16T05:12:40.493Z,13.83
2023-05-16T05:15:09.316Z,16.13
2023-05-16T05:17:38.942Z,15.90
2023-05-16T05:20:10.626Z,12.27
2023-05-16T05:22:38.784Z,12.27
2023-05-16T05:25:07.770Z,12.63
2023-05-16T05:27:35.799Z,12.27
2023-05-16T05:30:03.959Z,13.15
2023-05-16T05:32:32.255Z,11.57
2023-05-16T05:35:00.349Z,10.80
2023-05-16T05:37:30.165Z,10.45
2023-05-16T05:39:58.173Z,10.40
2023-05-16T05:42:26.415Z,10.45
2023-05-16T05:44:55.129Z,11.10
2023-05-16T05:47:23.196Z,9.70
2023-05-16T05:49:51.833Z,9.57
2023-05-16T05:52:20.152Z,9.32
2023-05-16T05:54:50.333Z,9.07
2023-05-16T05:57:18.347Z,8.57
2023-05-16T05:59:46.968Z,7.10
2023-05-16T06:02:15.349Z,7.03
2023-05-16T06:04:43.417Z,6.60
2023-05-16T06:07:11.471Z,6.88
2023-05-16T06:09:39.543Z,6.05
2023-05-16T06:12:09.779Z,7.05
2023-05-16T06:14:37.917Z,7.35
2023-05-16T06:17:06.192Z,8.52
2023-05-16T06:19:34.304Z,6.80
2023-05-16T06:22:02.523Z,7.30
2023-05-16T06:24:30.745Z,7.13
2023-05-16T06:26:58.736Z,6.75
2023-05-16T06:29:28.169Z,7.00
2023-05-16T06:31:56.249Z,7.00
2023-05-16T06:34:28.173Z,6.90
2023-05-16T06:36:56.489Z,7.03
2023-05-16T06:39:24.533Z,6.40
2023-05-16T06:41:56.235Z,6.97
2023-05-16T06:44:25.054Z,7.50
2023-05-16T06:46:54.716Z,9.07
2023-05-16T06:49:22.831Z,7.10
2023-05-16T06:51:51.021Z,6.75
2023-05-16T06:54:19.161Z,7.22
2023-05-16T06:56:47.232Z,6.45
2023-05-16T06:59:15.278Z,7.05
2023-05-16T07:01:43.550Z,6.93
2023-05-16T07:04:13.304Z,7.50
2023-05-16T07:06:41.724Z,7.15
2023-05-16T07:09:09.814Z,7.68
2023-05-16T07:11:37.853Z,8.00
2023-05-16T07:14:05.932Z,7.20
2023-05-16T07:16:34.139Z,8.25
2023-05-16T07:19:02.289Z,6.65
2023-05-16T07:21:31.765Z,7.60
2023-05-16T07:23:59.887Z,7.30
2023-05-16T07:26:28.041Z,6.93
2023-05-16T07:28:56.119Z,7.05
2023-05-16T07:31:24.359Z,6.82
2023-05-16T07:33:52.572Z,7.45
2023-05-16T07:36:21.349Z,7.18
2023-05-16T07:38:50.931Z,7.70
2023-05-16T07:41:19.080Z,7.30
2023-05-16T07:43:47.166Z,15.40
2023-05-16T07:46:15.440Z,7.25
2023-05-16T07:48:43.915Z,8.52
2023-05-16T07:51:11.941Z,7.00
2023-05-16T07:53:39.998Z,6.82
2023-05-16T07:56:10.044Z,8.10
2023-05-16T07:58:40.024Z,7.20
2023-05-16T08:01:08.238Z,7.70
2023-05-16T08:03:37.302Z,6.28
2023-05-16T08:06:05.917Z,7.50
2023-05-16T08:08:34.124Z,6.65
2023-05-16T08:11:02.295Z,7.45
2023-05-16T08:13:31.839Z,7.00
2023-05-16T08:16:00.046Z,6.35
2023-05-16T08:18:28.178Z,6.40
2023-05-16T08:20:56.219Z,7.07
2023-05-16T08:23:24.340Z,6.80
2023-05-16T08:25:54.734Z,7.47
2023-05-16T08:28:22.936Z,7.10
2023-05-16T08:30:52.579Z,8.52
2023-05-16T08:33:20.779Z,7.07
2023-05-16T08:35:49.955Z,6.95
2023-05-16T08:38:18.094Z,6.60
2023-05-16T08:40:46.282Z,7.07
2023-05-16T08:43:14.984Z,6.35
2023-05-16T08:45:43.154Z,6.70
2023-05-16T08:48:12.836Z,7.32
2023-05-16T08:50:42.855Z,6.97
2023-05-16T08:53:13.163Z,7.68
2023-05-16T08:55:42.910Z,7.40
2023-05-16T08:58:12.130Z,7.05
2023-05-16T09:00:41.342Z,7.35
2023-05-16T09:03:09.528Z,7.13
2023-05-16T09:05:39.761Z,7.90
2023-05-16T09:08:07.900Z,7.75
2023-05-16T09:10:36.117Z,6.50
2023-05-16T09:13:04.473Z,7.13
2023-05-16T09:15:33.665Z,7.15
2023-05-16T09:18:02.746Z,6.88
2023-05-16T09:20:31.380Z,6.38
2023-05-16T09:23:01.525Z,6.72
2023-05-16T09:25:32.484Z,7.90
2023-05-16T09:28:03.129Z,7.03
2023-05-16T09:30:33.989Z,6.50
2023-05-16T09:33:02.940Z,6.65
2023-05-16T09:35:43.793Z,6.97
2023-05-16T09:38:17.260Z,6.60
2023-05-16T09:40:46.344Z,6.95
2023-05-16T09:43:17.692Z,5.95
2023-05-16T09:45:48.965Z,6.15
2023-05-16T09:48:18.341Z,6.72
2023-05-16T09:50:53.062Z,6.35
2023-05-16T09:53:28.761Z,6.50
2023-05-16T09:56:07.960Z,6.30
2023-05-16T09:58:38.389Z,6.22
2023-05-16T10:01:07.887Z,8.13
2023-05-16T10:03:37.348Z,6.97
2023-05-16T10:06:06.855Z,7.25
2023-05-16T10:08:37.901Z,8.75
2023-05-16T10:11:07.396Z,7.88
2023-05-16T10:13:37.800Z,7.90
2023-05-16T10:16:11.455Z,7.85
2023-05-16T10:18:41.208Z,7.50
2023-05-16T10:21:12.137Z,7.50
2023-05-16T10:23:43.896Z,6.65
2023-05-16T10:26:14.741Z,7.18
2023-05-16T10:28:43.617Z,6.70
2023-05-16T10:31:12.654Z,7.50
2023-05-16T10:33:41.389Z,7.13
2023-05-16T10:36:11.112Z,7.57
2023-05-16T10:38:40.531Z,7.53
2023-05-16T10:41:10.678Z,8.07
2023-05-16T10:43:38.916Z,7.72
2023-05-16T10:46:09.747Z,7.88
2023-05-16T10:48:39.862Z,9.27
2023-05-16T10:51:35.273Z,7.95
2023-05-16T10:54:07.712Z,7.05
2023-05-16T10:56:37.767Z,6.57
2023-05-16T10:59:06.024Z,7.32
2023-05-16T11:01:34.960Z,7.45
2023-05-16T11:04:05.814Z,8.15
2023-05-16T11:06:34.907Z,7.50
2023-05-16T11:09:07.292Z,7.75
2023-05-16T11:11:48.957Z,7.13
2023-05-16T11:14:23.367Z,7.35
2023-05-16T11:16:52.714Z,6.88
2023-05-16T11:19:32.171Z,8.00
2023-05-16T11:22:07.614Z,6.95
2023-05-16T11:24:37.176Z,8.80
2023-05-16T11:27:07.650Z,8.98
2023-05-16T11:29:37.505Z,7.95
2023-05-16T11:32:06.680Z,7.00
2023-05-16T11:34:38.970Z,7.47
2023-05-16T11:37:07.655Z,8.15
2023-05-16T11:39:35.811Z,8.45
2023-05-16T11:42:03.843Z,8.43
2023-05-16T11:44:33.417Z,8.07
2023-05-16T11:47:02.564Z,8.05
2023-05-16T11:49:31.235Z,8.10
2023-05-16T11:51:59.367Z,8.98
2023-05-16T11:54:27.749Z,7.95
2023-05-16T11:56:56.162Z,8.60
2023-05-16T11:59:24.457Z,7.80
2023-05-16T12:01:53.910Z,8.38
2023-05-16T12:04:23.313Z,8.35
2023-05-16T12:07:03.151Z,7.68
2023-05-16T12:09:31.578Z,9.60
2023-05-16T12:11:59.765Z,7.88
2023-05-16T12:14:28.091Z,7.75
2023-05-16T12:16:58.216Z,8.18
2023-05-16T12:19:26.981Z,7.60
2023-05-16T12:21:55.520Z,7.28
2023-05-16T12:24:30.638Z,9.60
2023-05-16T12:26:59.072Z,9.20
2023-05-16T12:29:27.156Z,7.35
2023-05-16T12:31:55.331Z,6.82
2023-05-16T12:34:25.038Z,16.05
2023-05-16T12:36:54.613Z,7.80
2023-05-16T12:39:23.616Z,8.15
2023-05-16T12:41:51.775Z,8.18
2023-05-16T12:44:23.175Z,7.15
2023-05-16T12:46:52.853Z,6.50
2023-05-16T12:49:22.547Z,6.07
2023-05-16T12:51:53.366Z,8.30
2023-05-16T12:54:23.023Z,8.15
2023-05-16T12:56:51.545Z,7.03
2023-05-16T12:59:20.417Z,6.90
2023-05-16T13:01:48.788Z,7.28
2023-05-16T13:04:20.156Z,6.40
2023-05-16T13:06:59.333Z,8.13
2023-05-16T13:09:32.855Z,9.43
2023-05-16T13:12:01.589Z,6.07
2023-05-16T13:14:29.720Z,7.53
2023-05-16T13:16:57.858Z,6.97
2023-05-16T13:19:26.309Z,5.63
2023-05-16T13:21:54.476Z,6.32
2023-05-16T13:24:22.638Z,6.40
2023-05-16T13:26:52.197Z,7.32
2023-05-16T13:29:20.470Z,6.88
2023-05-16T13:31:48.591Z,8.05
2023-05-16T13:34:16.732Z,7.43
2023-05-16T13:39:18.162Z,8.55
2023-05-16T13:41:48.683Z,11.35
2023-05-16T13:44:18.675Z,7.78
2023-05-16T13:46:47.086Z,7.57
2023-05-16T13:49:15.234Z,7.97
2023-05-16T13:51:43.307Z,8.10
2023-05-16T13:54:11.355Z,7.63
2023-05-16T13:56:39.452Z,8.20
2023-05-16T13:59:07.897Z,8.90
2023-05-16T14:01:38.347Z,9.27
2023-05-16T14:04:06.895Z,9.07
2023-05-16T14:06:34.962Z,8.77
2023-05-16T14:09:03.409Z,7.97
2023-05-16T14:11:31.711Z,8.23
2023-05-16T14:13:59.816Z,6.95
2023-05-16T14:16:28.276Z,7.18
2023-05-16T14:18:58.116Z,6.97
2023-05-16T14:21:26.784Z,7.43
2023-05-16T14:23:54.982Z,8.15
2023-05-16T14:26:25.558Z,7.35
2023-05-16T14:28:53.781Z,8.93
2023-05-16T14:31:21.983Z,8.68
2023-05-16T14:33:50.539Z,7.53
2023-05-16T14:36:20.197Z,7.93
2023-05-16T14:38:49.589Z,7.18
2023-05-16T14:41:17.666Z,7.10
2023-05-16T14:43:46.178Z,6.82
2023-05-16T14:46:14.410Z,6.93
2023-05-16T14:48:42.518Z,6.60
2023-05-16T14:51:12.067Z,6.65
2023-05-16T14:53:41.649Z,6.68
2023-05-16T14:56:09.727Z,6.47
2023-05-16T14:58:37.853Z,6.53
2023-05-16T15:01:06.082Z,6.55
2023-05-16T15:03:46.929Z,6.93
2023-05-16T15:06:19.254Z,7.45
2023-05-16T15:08:48.745Z,9.15
2023-05-16T15:11:16.820Z,7.38
2023-05-16T15:13:44.906Z,6.75
2023-05-16T15:16:13.288Z,7.07
2023-05-16T15:18:41.818Z,7.38
2023-05-16T15:21:10.137Z,7.28
2023-05-16T15:23:38.352Z,6.93
2023-05-16T15:26:08.058Z,7.10
2023-05-16T15:28:36.192Z,7.38
2023-05-16T15:31:04.734Z,6.80
2023-05-16T15:33:32.824Z,8.55
2023-05-16T15:36:01.703Z,7.40
2023-05-16T15:38:29.851Z,7.88
2023-05-16T15:41:13.583Z,7.95
2023-05-16T15:43:47.360Z,8.05
2023-05-16T15:46:15.654Z,8.55
2023-05-16T15:48:45.034Z,10.23
2023-05-16T15:51:13.976Z,8.73
2023-05-16T15:53:42.078Z,9.98
2023-05-16T15:56:10.879Z,9.55
2023-05-16T15:58:38.920Z,9.80
2023-05-16T16:01:08.510Z,10.32
2023-05-16T16:03:36.770Z,10.38
2023-05-16T16:06:06.251Z,9.43
2023-05-16T16:08:34.343Z,9.85
2023-05-16T16:11:02.868Z,10.25
2023-05-16T16:13:31.143Z,10.85
2023-05-16T16:15:59.339Z,12.02
2023-05-16T16:18:28.898Z,12.40
2023-05-16T16:20:56.870Z,12.15
2023-05-16T16:23:24.992Z,12.15
2023-05-16T16:25:53.211Z,11.05
2023-05-16T16:28:22.586Z,11.98
2023-05-16T16:30:51.386Z,12.20
2023-05-16T16:33:19.750Z,13.02
2023-05-16T16:35:49.184Z,12.75
2023-05-16T16:38:17.664Z,11.80
2023-05-16T16:40:45.909Z,12.80
2023-05-16T16:43:14.877Z,13.35
2023-05-16T16:45:42.945Z,14.30
2023-05-16T16:48:11.661Z,14.43
2023-05-16T16:50:40.222Z,14.38
2023-05-16T16:53:09.972Z,14.63
2023-05-16T16:55:40.711Z,13.48
2023-05-16T16:58:09.190Z,14.68
2023-05-16T17:00:37.282Z,13.30
2023-05-16T17:03:05.555Z,12.50
2023-05-16T17:05:33.831Z,12.15
2023-05-16T17:08:02.018Z,13.15
2023-05-16T17:10:31.804Z,12.48
2023-05-16T17:13:07.115Z,12.73
2023-05-16T17:15:35.230Z,13.40
2023-05-16T17:18:04.742Z,13.52
2023-05-16T17:20:32.839Z,14.23
2023-05-16T17:23:01.134Z,14.43
2023-05-16T17:25:29.950Z,14.82
2023-05-16T17:27:59.746Z,16.02
2023-05-16T17:30:27.967Z,15.85
2023-05-16T17:32:56.035Z,17.30
2023-05-16T17:35:24.161Z,18.60
2023-05-16T17:37:52.440Z,19.30
2023-05-16T17:40:20.814Z,21.08
2023-05-16T17:42:49.015Z,21.67
2023-05-16T17:45:19.287Z,23.38
2023-05-16T17:47:47.441Z,24.95
2023-05-16T17:50:15.809Z,26.83
2023-05-16T17:52:44.248Z,28.38
2023-05-16T17:55:12.648Z,29.42
2023-05-16T17:57:40.955Z,28.95
2023-05-16T18:00:10.482Z,29.95
2023-05-16T18:02:41.217Z,31.40
2023-05-16T18:05:10.393Z,31.48
2023-05-16T18:07:38.802Z,33.75
2023-05-16T18:10:07.928Z,34.00
2023-05-16T18:12:37.997Z,33.45
2023-05-16T18:15:07.084Z,35.30
2023-05-16T18:17:35.421Z,34.85
2023-05-16T18:20:12.639Z,35.50
2023-05-16T18:22:41.381Z,37.03
2023-05-16T18:25:11.505Z,38.30
2023-05-16T18:27:39.642Z,37.65
2023-05-16T18:30:09.011Z,40.75
2023-05-16T18:32:37.296Z,39.00
2023-05-16T18:35:07.762Z,40.75
2023-05-16T18:37:36.643Z,40.05
2023-05-16T18:40:05.840Z,39.83
2023-05-16T18:42:34.321Z,39.78
2023-05-16T18:45:03.503Z,39.90
2023-05-16T18:47:31.786Z,41.20
2023-05-16T18:49:59.973Z,40.40
2023-05-16T18:52:29.626Z,39.43
2023-05-16T18:54:58.773Z,42.40
2023-05-16T18:57:26.928Z,40.83
2023-05-16T18:59:56.571Z,40.10
2023-05-16T19:02:37.877Z,40.77
2023-05-16T19:05:10.713Z,42.15
2023-05-16T19:07:40.880Z,44.07
2023-05-16T19:10:10.113Z,45.70
2023-05-16T19:12:38.636Z,48.67
2023-05-16T19:15:08.092Z,50.97
2023-05-16T19:17:36.327Z,52.43
2023-05-16T19:20:05.098Z,54.53
2023-05-16T19:22:33.740Z,57.37
2023-05-16T19:25:03.293Z,57.73
2023-05-16T19:27:31.701Z,60.00
2023-05-16T19:29:59.782Z,61.67
2023-05-16T19:32:27.891Z,64.23
2023-05-16T19:34:56.710Z,67.90
2023-05-16T19:37:24.850Z,67.90
2023-05-16T19:39:52.897Z,68.80
2023-05-16T19:42:22.381Z,69.03
2023-05-16T19:44:50.510Z,71.43
2023-05-16T19:47:18.612Z,70.37
2023-05-16T19:49:46.740Z,72.47
2023-05-16T19:52:14.908Z,73.27
2023-05-16T19:54:42.933Z,74.77
2023-05-16T19:57:11.028Z,75.67
2023-05-16T19:59:40.534Z,76.80
2023-05-16T20:02:08.716Z,75.40
2023-05-16T20:04:36.748Z,78.20
2023-05-16T20:07:04.903Z,78.13
2023-05-16T20:09:33.105Z,79.37
2023-05-16T20:12:01.458Z,81.70
2023-05-16T20:14:29.597Z,83.10
2023-05-16T20:16:59.734Z,83.43
2023-05-16T20:19:29.117Z,85.33
2023-05-16T20:21:57.288Z,85.47
2023-05-16T20:24:25.485Z,85.50
2023-05-16T20:26:54.469Z,88.20
2023-05-16T20:29:22.509Z,89.17
2023-05-16T20:31:50.524Z,91.03
2023-05-16T20:34:19.983Z,92.80
2023-05-16T20:36:48.123Z,93.03
2023-05-16T20:39:16.198Z,94.83
2023-05-16T20:41:44.273Z,94.33
2023-05-16T20:44:12.387Z,94.27
2023-05-16T20:46:42.068Z,95.10
2023-05-16T20:49:10.168Z,94.07
2023-05-16T20:51:39.624Z,95.67
2023-05-16T20:54:07.825Z,97.30
2023-05-16T20:56:35.911Z,98.77
2023-05-16T20:59:03.980Z,98.23
2023-05-16T21:01:32.786Z,99.50
2023-05-16T21:04:01.772Z,100.40
2023-05-16T21:06:29.885Z,98.93
2023-05-16T21:08:59.388Z,98.30
2023-05-16T21:11:28.671Z,100.17
2023-05-16T21:13:56.688Z,100.87
2023-05-16T21:16:25.054Z,100.97
2023-05-16T21:18:53.468Z,100.80
2023-05-16T21:21:21.733Z,99.77
2023-05-16T21:23:49.927Z,98.73
2023-05-16T21:26:19.476Z,100.57
2023-05-16T21:28:55.002Z,100.57
2023-05-16T21:31:23.820Z,100.63
2023-05-16T21:33:52.735Z,101.37
2023-05-16T21:36:21.028Z,103.37
2023-05-16T21:38:49.065Z,104.07
2023-05-16T21:41:18.266Z,104.27
2023-05-16T21:43:47.759Z,104.53
2023-05-16T21:46:15.910Z,103.77
2023-05-16T21:48:44.051Z,103.90
2023-05-16T21:51:12.207Z,104.90
2023-05-16T21:53:40.268Z,104.30
2023-05-16T21:56:08.712Z,103.10
2023-05-16T21:58:36.849Z,103.70
2023-05-16T22:01:06.606Z,103.10
2023-05-16T22:03:34.943Z,102.57
2023-05-16T22:06:03.233Z,101.93
2023-05-16T22:08:31.380Z,102.27
2023-05-16T22:10:59.533Z,100.33
2023-05-16T22:13:27.611Z,98.17
2023-05-16T22:16:04.009Z,97.90
2023-05-16T22:18:34.741Z,96.37
2023-05-16T22:21:03.001Z,95.73
2023-05-16T22:23:31.095Z,95.97
2023-05-16T22:25:59.247Z,94.70
2023-05-16T22:28:27.366Z,93.97
2023-05-16T22:30:55.526Z,93.47
2023-05-16T22:33:24.191Z,93.33
2023-05-16T22:35:54.062Z,95.03
2023-05-16T22:38:22.312Z,95.27
2023-05-16T22:40:50.358Z,95.20
2023-05-16T22:43:18.483Z,94.90
2023-05-16T22:45:46.687Z,93.83
2023-05-16T22:48:14.822Z,92.90
2023-05-16T22:50:42.936Z,92.33
2023-05-16T22:53:12.410Z,92.37
2023-05-16T22:55:40.404Z,92.60
2023-05-16T22:58:08.452Z,92.80
2023-05-16T23:00:36.581Z,93.27
2023-05-16T23:03:04.769Z,93.03
2023-05-16T23:05:32.875Z,93.43
2023-05-16T23:08:00.900Z,92.83
2023-05-16T23:10:30.592Z,93.70
2023-05-16T23:12:58.742Z,92.87
2023-05-16T23:15:26.990Z,91.23
2023-05-16T23:17:55.636Z,92.77
2023-05-16T23:20:23.864Z,92.10
2023-05-16T23:22:51.866Z,91.17
2023-05-16T23:25:20.034Z,91.53
2023-05-16T23:27:49.438Z,92.17
2023-05-16T23:30:17.669Z,92.13
2023-05-16T23:32:45.761Z,90.53
2023-05-16T23:35:13.873Z,90.00
2023-05-16T23:37:41.962Z,91.30
2023-05-16T23:40:11.020Z,92.03
2023-05-16T23:42:40.853Z,91.00
2023-05-16T23:45:11.378Z,91.40
2023-05-16T23:47:39.802Z,91.17
2023-05-16T23:50:08.745Z,91.63
2023-05-16T23:52:36.943Z,92.57
2023-05-16T23:55:05.608Z,92.40
2023-05-16T23:57:33.800Z,92.43
